createdAt,value
2018-09-16T00:01:20.727Z,11.76
2018-09-16T00:04:24.724Z,11.70
2018-09-16T00:07:28.646Z,11.74
2018-09-16T00:10:32.565Z,11.71
2018-09-16T00:13:36.497Z,11.68
2018-09-16T00:16:40.426Z,11.64
2018-09-16T00:19:44.338Z,11.60
2018-09-16T00:22:48.271Z,11.61
2018-09-16T00:25:52.758Z,11.63
2018-09-16T00:28:56.690Z,11.61
2018-09-16T00:32:06.043Z,11.57
2018-09-16T00:35:09.943Z,11.55
2018-09-16T00:38:13.882Z,11.53
2018-09-16T00:41:17.830Z,11.51
2018-09-16T00:44:21.758Z,11.49
2018-09-16T00:47:25.913Z,11.47
2018-09-16T00:50:29.843Z,11.45
2018-09-16T00:53:33.770Z,11.40
2018-09-16T00:56:37.677Z,11.39
2018-09-16T00:59:41.730Z,11.39
2018-09-16T01:02:45.652Z,11.39
2018-09-16T01:05:55.367Z,11.38
2018-09-16T01:08:59.642Z,11.38
2018-09-16T01:12:04.136Z,11.40
2018-09-16T01:15:08.323Z,11.39
2018-09-16T01:18:12.246Z,11.39
2018-09-16T01:21:16.151Z,11.38
2018-09-16T01:24:20.110Z,11.39
2018-09-16T01:27:24.038Z,11.39
2018-09-16T01:30:27.982Z,11.41
2018-09-16T01:33:32.139Z,11.42
2018-09-16T01:36:36.264Z,11.44
2018-09-16T01:39:40.181Z,11.41
2018-09-16T01:42:44.195Z,11.46
2018-09-16T01:45:48.291Z,11.45
2018-09-16T01:48:52.234Z,11.45
2018-09-16T01:51:56.173Z,11.48
2018-09-16T01:55:00.095Z,11.49
2018-09-16T01:58:04.207Z,11.47
2018-09-16T02:01:08.559Z,11.46
2018-09-16T02:04:12.481Z,11.47
2018-09-16T02:07:16.434Z,11.44
2018-09-16T02:10:20.592Z,11.43
2018-09-16T02:13:24.537Z,11.45
2018-09-16T02:16:28.647Z,11.45
2018-09-16T02:19:32.778Z,11.45
2018-09-16T02:22:36.698Z,11.45
2018-09-16T02:25:41.562Z,11.42
2018-09-16T02:28:45.829Z,11.38
2018-09-16T02:31:49.878Z,11.39
2018-09-16T02:34:54.023Z,11.37
2018-09-16T02:37:57.935Z,11.32
2018-09-16T02:41:01.866Z,11.30
2018-09-16T02:44:06.318Z,11.30
2018-09-16T02:47:10.234Z,11.25
2018-09-16T02:50:14.216Z,11.25
2018-09-16T02:53:18.142Z,11.22
2018-09-16T02:56:22.415Z,11.20
2018-09-16T02:59:26.325Z,11.18
2018-09-16T03:02:30.278Z,11.16
2018-09-16T03:05:39.498Z,11.13
2018-09-16T03:08:43.418Z,11.11
2018-09-16T03:11:47.625Z,11.10
2018-09-16T03:14:53.403Z,11.07
2018-09-16T03:17:57.627Z,11.06
2018-09-16T03:21:01.572Z,11.03
2018-09-16T03:24:05.494Z,11.01
2018-09-16T03:27:09.410Z,11.02
2018-09-16T03:30:13.344Z,10.96
2018-09-16T03:33:17.294Z,10.95
2018-09-16T03:36:21.214Z,10.95
2018-09-16T03:39:25.151Z,10.93
2018-09-16T03:42:29.268Z,10.91
2018-09-16T03:45:33.194Z,10.89
2018-09-16T03:48:37.146Z,10.90
2018-09-16T03:51:41.082Z,10.89
2018-09-16T03:54:45.009Z,10.82
2018-09-16T03:57:49.262Z,10.82
2018-09-16T04:00:53.391Z,10.82
2018-09-16T04:03:57.510Z,10.81
2018-09-16T04:07:01.431Z,10.76
2018-09-16T04:10:05.703Z,10.77
2018-09-16T04:13:09.635Z,10.76
2018-09-16T04:16:13.546Z,10.73
2018-09-16T04:19:17.465Z,10.69
2018-09-16T04:22:21.418Z,10.71
2018-09-16T04:25:25.342Z,10.71
2018-09-16T04:28:29.263Z,10.69
2018-09-16T04:31:33.192Z,10.64
2018-09-16T04:34:37.241Z,10.64
2018-09-16T04:37:41.392Z,10.63
2018-09-16T04:40:45.532Z,10.62
2018-09-16T04:43:49.437Z,10.70
2018-09-16T04:46:53.369Z,10.69
2018-09-16T04:49:57.324Z,10.72
2018-09-16T04:53:01.437Z,10.75
2018-09-16T04:56:05.698Z,10.75
2018-09-16T04:59:09.627Z,10.79
2018-09-16T05:02:13.901Z,10.78
2018-09-16T05:05:17.810Z,10.87
2018-09-16T05:08:21.727Z,10.86
2018-09-16T05:11:25.697Z,10.92
2018-09-16T05:14:29.627Z,10.92
2018-09-16T05:17:33.567Z,10.92
2018-09-16T05:20:37.506Z,10.97
2018-09-16T05:23:41.454Z,11.00
2018-09-16T05:26:45.689Z,11.02
2018-09-16T05:29:49.617Z,11.09
2018-09-16T05:32:53.684Z,11.10
2018-09-16T05:35:57.609Z,11.15
2018-09-16T05:39:01.563Z,11.15
2018-09-16T05:42:05.506Z,11.20
2018-09-16T05:45:10.003Z,11.22
2018-09-16T05:48:14.030Z,11.25
2018-09-16T05:51:17.953Z,11.32
2018-09-16T05:54:21.873Z,11.34
2018-09-16T05:57:25.807Z,11.37
2018-09-16T06:00:29.920Z,11.37
2018-09-16T06:03:33.858Z,11.43
2018-09-16T06:06:37.789Z,11.48
2018-09-16T06:09:41.735Z,11.50
2018-09-16T06:12:46.161Z,11.53
2018-09-16T06:15:50.073Z,11.59
2018-09-16T06:18:54.001Z,11.64
2018-09-16T06:21:57.992Z,11.68
2018-09-16T06:25:01.926Z,11.72
2018-09-16T06:28:06.109Z,11.76
2018-09-16T06:31:10.062Z,11.81
2018-09-16T06:34:13.986Z,11.85
2018-09-16T06:37:17.964Z,11.89
2018-09-16T06:40:22.464Z,11.92
2018-09-16T06:43:26.382Z,11.98
2018-09-16T06:46:30.304Z,12.02
2018-09-16T06:49:34.210Z,12.05
2018-09-16T06:52:38.474Z,12.07
2018-09-16T06:55:42.398Z,12.11
2018-09-16T06:58:46.369Z,12.15
2018-09-16T07:01:50.473Z,12.19
2018-09-16T07:04:54.405Z,12.23
2018-09-16T07:07:58.311Z,12.25
2018-09-16T07:11:02.482Z,12.29
2018-09-16T07:14:06.942Z,12.33
2018-09-16T07:17:11.230Z,12.37
2018-09-16T07:20:15.245Z,12.40
2018-09-16T07:23:19.293Z,12.45
2018-09-16T07:26:23.578Z,12.49
2018-09-16T07:29:27.534Z,12.54
2018-09-16T07:32:31.454Z,12.59
2018-09-16T07:35:35.434Z,12.63
2018-09-16T07:38:39.465Z,12.68
2018-09-16T07:41:43.706Z,12.73
2018-09-16T07:44:47.636Z,12.77
2018-09-16T07:47:51.700Z,12.85
2018-09-16T07:50:55.641Z,12.91
2018-09-16T07:53:59.613Z,12.98
2018-09-16T07:57:03.547Z,13.04
2018-09-16T08:00:07.480Z,13.10
2018-09-16T08:03:11.410Z,13.17
2018-09-16T08:06:15.449Z,13.24
2018-09-16T08:09:19.487Z,13.31
2018-09-16T08:12:23.435Z,13.36
2018-09-16T08:15:27.361Z,13.43
2018-09-16T08:18:31.413Z,13.49
2018-09-16T08:21:35.357Z,13.55
2018-09-16T08:24:39.522Z,13.62
2018-09-16T08:27:43.438Z,13.68
2018-09-16T08:30:47.366Z,13.74
2018-09-16T08:33:51.334Z,13.80
2018-09-16T08:36:55.267Z,13.85
2018-09-16T08:39:59.208Z,13.91
2018-09-16T08:43:03.138Z,13.96
2018-09-16T08:46:07.446Z,14.04
2018-09-16T08:49:11.386Z,14.11
2018-09-16T08:52:15.398Z,14.18
2018-09-16T08:55:19.531Z,14.24
2018-09-16T08:58:23.622Z,14.31
2018-09-16T09:01:27.610Z,14.40
2018-09-16T09:04:31.741Z,14.48
2018-09-16T09:07:35.658Z,14.58
2018-09-16T09:10:39.682Z,14.67
2018-09-16T09:13:43.761Z,14.77
2018-09-16T09:16:47.687Z,14.86
2018-09-16T09:19:51.650Z,14.96
2018-09-16T09:22:55.630Z,15.04
2018-09-16T09:26:00.015Z,15.10
2018-09-16T09:29:03.964Z,15.17
2018-09-16T09:32:08.221Z,15.25
2018-09-16T09:35:12.535Z,15.32
2018-09-16T09:38:16.523Z,15.38
2018-09-16T09:41:20.853Z,15.45
2018-09-16T09:44:24.823Z,15.50
2018-09-16T09:47:28.738Z,15.56
2018-09-16T09:50:32.887Z,15.60
2018-09-16T09:53:36.821Z,15.63
2018-09-16T09:56:40.999Z,15.68
2018-09-16T09:59:45.011Z,15.73
2018-09-16T10:02:49.149Z,15.77
2018-09-16T10:05:53.143Z,15.82
2018-09-16T10:08:57.090Z,15.86
2018-09-16T10:12:01.062Z,15.90
2018-09-16T10:15:04.969Z,15.95
2018-09-16T10:18:09.161Z,15.97
2018-09-16T10:21:13.122Z,16.02
2018-09-16T10:24:17.309Z,16.05
2018-09-16T10:27:21.436Z,16.09
2018-09-16T10:30:25.379Z,16.12
2018-09-16T10:33:29.338Z,16.15
2018-09-16T10:36:33.601Z,16.18
2018-09-16T10:39:37.573Z,16.22
2018-09-16T10:42:41.558Z,16.24
2018-09-16T10:45:45.745Z,16.29
2018-09-16T10:48:49.689Z,16.31
2018-09-16T10:51:53.754Z,16.36
2018-09-16T10:54:57.674Z,16.38
2018-09-16T10:58:01.673Z,16.43
2018-09-16T11:01:06.187Z,16.47
2018-09-16T11:04:10.132Z,16.52
2018-09-16T11:07:16.838Z,16.55
2018-09-16T11:10:20.806Z,16.60
2018-09-16T11:13:25.093Z,16.64
2018-09-16T11:16:29.268Z,16.69
2018-09-16T11:19:33.430Z,16.75
2018-09-16T11:22:37.343Z,16.80
2018-09-16T11:25:41.286Z,16.83
2018-09-16T11:28:45.255Z,16.89
2018-09-16T11:31:49.193Z,16.93
2018-09-16T11:34:53.122Z,16.98
2018-09-16T11:37:57.297Z,17.02
2018-09-16T11:41:01.296Z,17.07
2018-09-16T11:44:05.675Z,17.09
2018-09-16T11:47:09.626Z,17.12
2018-09-16T11:50:13.795Z,17.16
2018-09-16T11:53:17.745Z,17.20
2018-09-16T11:56:21.907Z,17.24
2018-09-16T11:59:25.838Z,17.29
2018-09-16T12:02:29.779Z,17.33
2018-09-16T12:05:33.794Z,17.38
2018-09-16T12:08:37.753Z,17.44
2018-09-16T12:11:41.682Z,17.49
2018-09-16T12:14:45.851Z,17.54
2018-09-16T12:17:50.154Z,17.60
2018-09-16T12:20:54.095Z,17.65
2018-09-16T12:23:58.047Z,17.70
2018-09-16T12:27:02.063Z,17.76
2018-09-16T12:30:06.111Z,17.80
2018-09-16T12:33:10.099Z,17.84
2018-09-16T12:36:14.029Z,17.89
2018-09-16T12:39:17.962Z,17.94
2018-09-16T12:42:21.898Z,17.98
2018-09-16T12:45:25.888Z,18.05
2018-09-16T12:48:29.957Z,18.10
2018-09-16T12:51:33.899Z,18.17
2018-09-16T12:54:37.809Z,18.23
2018-09-16T12:57:41.854Z,18.30
2018-09-16T13:00:45.770Z,18.37
2018-09-16T13:03:49.710Z,18.41
2018-09-16T13:06:53.987Z,18.44
2018-09-16T13:09:58.000Z,18.46
2018-09-16T13:13:02.126Z,18.48
2018-09-16T13:16:07.598Z,18.50
2018-09-16T13:19:11.519Z,18.52
2018-09-16T13:22:15.548Z,18.54
2018-09-16T13:25:19.643Z,18.54
2018-09-16T13:28:23.917Z,18.57
2018-09-16T13:31:27.915Z,18.59
2018-09-16T13:34:32.198Z,18.63
2018-09-16T13:37:36.396Z,18.68
2018-09-16T13:40:40.502Z,18.71
2018-09-16T13:43:44.643Z,18.75
2018-09-16T13:46:48.769Z,18.80
2018-09-16T13:49:52.846Z,18.85
2018-09-16T13:52:56.863Z,18.89
2018-09-16T13:56:00.787Z,18.95
2018-09-16T13:59:04.959Z,18.99
2018-09-16T14:02:09.098Z,19.03
2018-09-16T14:05:13.025Z,19.08
2018-09-16T14:08:18.905Z,19.12
2018-09-16T14:11:22.827Z,19.17
2018-09-16T14:14:26.798Z,19.21
2018-09-16T14:17:30.739Z,19.26
2018-09-16T14:20:34.720Z,19.29
2018-09-16T14:23:38.683Z,19.32
2018-09-16T14:26:42.935Z,19.36
2018-09-16T14:29:47.159Z,19.40
2018-09-16T14:32:51.149Z,19.43
2018-09-16T14:35:55.510Z,19.47
2018-09-16T14:38:59.751Z,19.51
2018-09-16T14:42:03.889Z,19.54
2018-09-16T14:45:08.296Z,19.56
2018-09-16T14:48:12.330Z,19.60
2018-09-16T14:51:16.470Z,19.63
2018-09-16T14:54:20.790Z,19.67
2018-09-16T14:57:24.898Z,19.69
2018-09-16T15:00:28.946Z,19.72
2018-09-16T15:03:33.116Z,19.72
2018-09-16T15:06:37.224Z,19.71
2018-09-16T15:09:41.244Z,19.71
2018-09-16T15:12:45.382Z,19.68
2018-09-16T15:15:49.491Z,19.65
2018-09-16T15:18:53.544Z,19.62
2018-09-16T15:21:57.664Z,19.59
2018-09-16T15:25:01.665Z,19.57
2018-09-16T15:28:06.005Z,19.56
2018-09-16T15:31:10.063Z,19.54
2018-09-16T15:34:14.214Z,19.52
2018-09-16T15:37:18.545Z,19.49
2018-09-16T15:40:22.640Z,19.47
2018-09-16T15:43:27.298Z,19.43
2018-09-16T15:46:31.364Z,19.43
2018-09-16T15:49:35.464Z,19.41
2018-09-16T15:52:39.476Z,19.40
2018-09-16T15:55:43.527Z,19.37
2018-09-16T15:58:47.762Z,19.35
2018-09-16T16:01:51.710Z,19.33
2018-09-16T16:04:55.662Z,19.31
2018-09-16T16:07:59.571Z,19.29
2018-09-16T16:11:03.596Z,19.27
2018-09-16T16:14:22.837Z,19.24
2018-09-16T16:17:26.959Z,19.21
2018-09-16T16:31:39.718Z,19.06
2018-09-16T16:34:43.761Z,19.01
2018-09-16T16:37:47.714Z,18.98
2018-09-16T16:40:51.702Z,18.95
2018-09-16T16:43:55.751Z,18.91
2018-09-16T16:46:59.776Z,18.88
2018-09-16T16:50:05.239Z,18.84
2018-09-16T16:53:10.796Z,18.80
2018-09-16T16:56:14.774Z,18.75
2018-09-16T16:59:18.777Z,18.72
2018-09-16T17:02:23.076Z,18.68
2018-09-16T17:05:27.142Z,18.65
2018-09-16T17:08:32.093Z,18.59
2018-09-16T17:11:36.791Z,18.56
2018-09-16T17:14:40.923Z,18.51
2018-09-16T17:17:45.103Z,18.48
2018-09-16T17:20:49.190Z,18.43
2018-09-16T17:23:53.192Z,18.40
2018-09-16T17:26:57.314Z,18.35
2018-09-16T17:30:01.386Z,18.32
2018-09-16T17:33:05.464Z,18.27
2018-09-16T17:36:09.849Z,18.23
2018-09-16T17:39:14.346Z,18.19
2018-09-16T17:42:18.603Z,18.14
2018-09-16T17:45:22.664Z,18.07
2018-09-16T17:48:27.715Z,18.02
2018-09-16T17:51:32.595Z,17.96
2018-09-16T17:54:36.986Z,17.90
2018-09-16T17:57:41.054Z,17.83
2018-09-16T18:00:45.155Z,17.76
2018-09-16T18:03:49.513Z,17.68
2018-09-16T18:06:53.634Z,17.62
2018-09-16T18:09:57.714Z,17.56
2018-09-16T18:13:01.764Z,17.49
2018-09-16T18:16:05.792Z,17.42
2018-09-16T18:19:09.793Z,17.35
2018-09-16T18:22:13.824Z,17.29
2018-09-16T18:25:18.194Z,17.23
2018-09-16T18:28:22.183Z,17.14
2018-09-16T18:31:26.244Z,17.09
2018-09-16T18:34:30.433Z,17.02
2018-09-16T18:37:34.897Z,16.97
2018-09-16T18:40:39.121Z,16.91
2018-09-16T18:43:43.193Z,16.83
2018-09-16T18:46:47.274Z,16.78
2018-09-16T18:49:51.445Z,16.71
2018-09-16T18:52:55.604Z,16.64
2018-09-16T18:55:59.682Z,16.58
2018-09-16T18:59:03.827Z,16.52
2018-09-16T19:02:07.905Z,16.45
2018-09-16T19:05:11.966Z,16.40
2018-09-16T19:08:16.353Z,16.32
2018-09-16T19:11:20.492Z,16.26
2018-09-16T19:14:24.597Z,16.21
2018-09-16T19:17:29.202Z,16.13
2018-09-16T19:20:33.871Z,16.06
2018-09-16T19:23:38.056Z,16.01
2018-09-16T19:26:42.081Z,15.94
2018-09-16T19:29:46.164Z,15.86
2018-09-16T19:32:50.547Z,15.80
2018-09-16T19:35:54.601Z,15.75
2018-09-16T19:38:58.704Z,15.67
2018-09-16T19:42:03.037Z,15.62
2018-09-16T19:45:07.856Z,15.57
2018-09-16T19:48:12.068Z,15.50
2018-09-16T19:51:16.459Z,15.44
2018-09-16T19:54:20.427Z,15.39
2018-09-16T19:57:24.434Z,15.34
2018-09-16T20:00:28.449Z,15.27
2018-09-16T20:03:33.062Z,15.23
2018-09-16T20:06:37.023Z,15.14
2018-09-16T20:09:40.995Z,15.11
2018-09-16T20:12:45.049Z,15.07
2018-09-16T20:15:49.432Z,15.10
2018-09-16T20:18:53.406Z,15.09
2018-09-16T20:21:57.401Z,15.04
2018-09-16T20:25:01.750Z,15.03
2018-09-16T20:28:05.969Z,15.00
2018-09-16T20:31:09.930Z,14.96
2018-09-16T20:34:13.891Z,14.91
2018-09-16T20:37:17.872Z,14.81
2018-09-16T20:40:21.913Z,14.74
2018-09-16T20:43:25.905Z,14.69
2018-09-16T20:46:30.052Z,14.66
2018-09-16T20:49:34.147Z,14.67
2018-09-16T20:52:38.119Z,14.65
2018-09-16T20:55:42.088Z,14.64
2018-09-16T20:58:46.059Z,14.63
2018-09-16T21:01:50.020Z,14.56
2018-09-16T21:04:54.073Z,14.57
2018-09-16T21:07:58.024Z,14.57
2018-09-16T21:11:02.166Z,14.55
2018-09-16T21:14:06.155Z,14.52
2018-09-16T21:17:10.281Z,14.49
2018-09-16T21:20:14.559Z,14.51
2018-09-16T21:23:18.546Z,14.49
2018-09-16T21:26:22.612Z,14.49
2018-09-16T21:29:26.639Z,14.49
2018-09-16T21:32:30.600Z,14.45
2018-09-16T21:35:34.573Z,14.44
2018-09-16T21:38:38.558Z,14.44
2018-09-16T21:41:43.230Z,14.43
2018-09-16T21:44:47.158Z,14.40
2018-09-16T21:47:51.126Z,14.39
2018-09-16T21:50:55.083Z,14.36
2018-09-16T21:53:59.053Z,14.35
2018-09-16T21:57:02.999Z,14.33
2018-09-16T22:00:07.811Z,14.31
2018-09-16T22:03:11.763Z,14.30
2018-09-16T22:06:15.717Z,14.29
2018-09-16T22:09:19.684Z,14.25
2018-09-16T22:12:23.634Z,14.29
2018-09-16T22:15:27.589Z,14.27
2018-09-16T22:18:31.544Z,14.24
2018-09-16T22:21:35.495Z,14.19
2018-09-16T22:24:39.431Z,14.24
2018-09-16T22:27:43.381Z,14.25
2018-09-16T22:30:47.683Z,14.24
2018-09-16T22:33:51.622Z,14.22
2018-09-16T22:36:55.788Z,14.21
2018-09-16T22:39:59.748Z,14.19
2018-09-16T22:43:03.824Z,14.20
2018-09-16T22:46:07.777Z,14.19
2018-09-16T22:49:11.927Z,14.18
2018-09-16T22:52:15.911Z,14.17
2018-09-16T22:55:19.858Z,14.17
2018-09-16T22:58:23.802Z,14.16
2018-09-16T23:01:28.084Z,14.15
2018-09-16T23:04:32.041Z,14.14
2018-09-16T23:07:35.989Z,14.12
2018-09-16T23:10:39.945Z,14.10
2018-09-16T23:13:44.030Z,14.09
2018-09-16T23:16:47.980Z,14.10
2018-09-16T23:19:51.934Z,14.04
2018-09-16T23:22:56.209Z,14.04
2018-09-16T23:26:00.183Z,14.00
2018-09-16T23:29:04.110Z,13.95
2018-09-16T23:32:08.026Z,13.93
2018-09-16T23:35:11.951Z,13.88
2018-09-16T23:38:16.074Z,13.82
2018-09-16T23:41:19.990Z,13.77
2018-09-16T23:44:23.927Z,13.72
2018-09-16T23:47:27.830Z,13.61
2018-09-16T23:50:31.750Z,13.58
2018-09-16T23:53:35.884Z,13.55
2018-09-16T23:56:39.808Z,13.50
2018-09-16T23:59:43.720Z,13.44
